sensor_id;sensor_type;location;lat;lon;timestamp;P1;durP1;ratioP1;P2;durP2;ratioP2
13592;SDS011;6867;50.998;4.250;2023-02-12T00:00:00;12.50;;;8.23;;
13592;SDS011;6867;50.998;4.250;2023-02-12T00:02:29;12.70;;;8.90;;
13592;SDS011;6867;50.998;4.250;2023-02-12T00:04:55;11.30;;;8.43;;
13592;SDS011;6867;50.998;4.250;2023-02-12T00:07:23;11.40;;;8.07;;
13592;SDS011;6867;50.998;4.250;2023-02-12T00:09:50;11.07;;;8.63;;
13592;SDS011;6867;50.998;4.250;2023-02-12T00:12:17;13.83;;;8.73;;
13592;SDS011;6867;50.998;4.250;2023-02-12T00:14:43;9.60;;;7.80;;
13592;SDS011;6867;50.998;4.250;2023-02-12T00:17:10;9.90;;;7.33;;
13592;SDS011;6867;50.998;4.250;2023-02-12T00:19:37;14.57;;;7.93;;
13592;SDS011;6867;50.998;4.250;2023-02-12T00:22:04;14.10;;;9.47;;
13592;SDS011;6867;50.998;4.250;2023-02-12T00:24:32;12.57;;;9.70;;
13592;SDS011;6867;50.998;4.250;2023-02-12T00:26:58;12.30;;;8.77;;
13592;SDS011;6867;50.998;4.250;2023-02-12T00:29:25;13.57;;;9.57;;
13592;SDS011;6867;50.998;4.250;2023-02-12T00:31:52;11.40;;;8.90;;
13592;SDS011;6867;50.998;4.250;2023-02-12T00:34:18;16.13;;;10.83;;
13592;SDS011;6867;50.998;4.250;2023-02-12T00:36:45;13.43;;;9.43;;
13592;SDS011;6867;50.998;4.250;2023-02-12T00:39:12;14.87;;;9.77;;
13592;SDS011;6867;50.998;4.250;2023-02-12T00:41:40;15.00;;;10.13;;
13592;SDS011;6867;50.998;4.250;2023-02-12T00:44:06;15.20;;;10.27;;
13592;SDS011;6867;50.998;4.250;2023-02-12T00:46:33;13.53;;;9.77;;
13592;SDS011;6867;50.998;4.250;2023-02-12T00:49:00;14.63;;;10.00;;
13592;SDS011;6867;50.998;4.250;2023-02-12T00:51:27;16.80;;;11.17;;
13592;SDS011;6867;50.998;4.250;2023-02-12T00:53:53;14.33;;;10.43;;
13592;SDS011;6867;50.998;4.250;2023-02-12T00:56:20;16.50;;;10.50;;
13592;SDS011;6867;50.998;4.250;2023-02-12T00:58:48;15.93;;;10.57;;
13592;SDS011;6867;50.998;4.250;2023-02-12T01:01:15;16.87;;;9.97;;
13592;SDS011;6867;50.998;4.250;2023-02-12T01:03:42;13.83;;;9.73;;
13592;SDS011;6867;50.998;4.250;2023-02-12T01:06:09;14.63;;;10.50;;
13592;SDS011;6867;50.998;4.250;2023-02-12T01:08:35;14.07;;;9.57;;
13592;SDS011;6867;50.998;4.250;2023-02-12T01:11:03;12.37;;;9.13;;
13592;SDS011;6867;50.998;4.250;2023-02-12T01:13:31;13.03;;;9.63;;
13592;SDS011;6867;50.998;4.250;2023-02-12T01:16:04;13.03;;;9.90;;
13592;SDS011;6867;50.998;4.250;2023-02-12T01:18:33;13.03;;;9.13;;
13592;SDS011;6867;50.998;4.250;2023-02-12T01:21:00;15.00;;;9.87;;
13592;SDS011;6867;50.998;4.250;2023-02-12T01:23:27;12.57;;;9.07;;
13592;SDS011;6867;50.998;4.250;2023-02-12T01:25:54;14.37;;;10.43;;
13592;SDS011;6867;50.998;4.250;2023-02-12T01:28:20;13.17;;;9.97;;
13592;SDS011;6867;50.998;4.250;2023-02-12T01:30:47;12.90;;;9.40;;
13592;SDS011;6867;50.998;4.250;2023-02-12T01:33:15;14.27;;;9.57;;
13592;SDS011;6867;50.998;4.250;2023-02-12T01:35:42;15.27;;;10.27;;
13592;SDS011;6867;50.998;4.250;2023-02-12T01:38:08;13.17;;;10.07;;
13592;SDS011;6867;50.998;4.250;2023-02-12T01:40:35;13.53;;;9.60;;
13592;SDS011;6867;50.998;4.250;2023-02-12T01:43:02;17.23;;;10.10;;
13592;SDS011;6867;50.998;4.250;2023-02-12T01:48:22;15.23;;;9.50;;
13592;SDS011;6867;50.998;4.250;2023-02-12T01:50:50;13.77;;;10.20;;
13592;SDS011;6867;50.998;4.250;2023-02-12T01:53:19;13.57;;;9.57;;
13592;SDS011;6867;50.998;4.250;2023-02-12T01:55:51;15.00;;;9.33;;
13592;SDS011;6867;50.998;4.250;2023-02-12T01:58:21;11.73;;;9.43;;
13592;SDS011;6867;50.998;4.250;2023-02-12T02:00:49;13.67;;;9.43;;
13592;SDS011;6867;50.998;4.250;2023-02-12T02:03:16;12.73;;;9.73;;
13592;SDS011;6867;50.998;4.250;2023-02-12T02:05:45;13.63;;;9.23;;
13592;SDS011;6867;50.998;4.250;2023-02-12T02:08:17;12.53;;;9.07;;
13592;SDS011;6867;50.998;4.250;2023-02-12T02:10:44;12.83;;;9.20;;
13592;SDS011;6867;50.998;4.250;2023-02-12T02:13:10;14.40;;;10.13;;
13592;SDS011;6867;50.998;4.250;2023-02-12T02:15:55;14.27;;;10.07;;
13592;SDS011;6867;50.998;4.250;2023-02-12T02:18:27;13.47;;;8.90;;
13592;SDS011;6867;50.998;4.250;2023-02-12T02:27:19;12.27;;;9.90;;
13592;SDS011;6867;50.998;4.250;2023-02-12T02:30:03;14.87;;;11.13;;
13592;SDS011;6867;50.998;4.250;2023-02-12T02:32:39;13.63;;;10.97;;
13592;SDS011;6867;50.998;4.250;2023-02-12T02:35:10;13.57;;;10.13;;
13592;SDS011;6867;50.998;4.250;2023-02-12T02:37:44;15.70;;;11.67;;
13592;SDS011;6867;50.998;4.250;2023-02-12T02:40:17;17.90;;;11.43;;
13592;SDS011;6867;50.998;4.250;2023-02-12T02:42:48;16.47;;;11.20;;
13592;SDS011;6867;50.998;4.250;2023-02-12T02:45:21;18.00;;;11.87;;
13592;SDS011;6867;50.998;4.250;2023-02-12T02:47:54;20.60;;;12.53;;
13592;SDS011;6867;50.998;4.250;2023-02-12T02:50:24;17.33;;;12.40;;
13592;SDS011;6867;50.998;4.250;2023-02-12T02:52:53;16.10;;;11.57;;
13592;SDS011;6867;50.998;4.250;2023-02-12T02:55:25;15.90;;;10.93;;
13592;SDS011;6867;50.998;4.250;2023-02-12T02:57:56;14.37;;;11.07;;
13592;SDS011;6867;50.998;4.250;2023-02-12T03:00:30;14.17;;;10.20;;
13592;SDS011;6867;50.998;4.250;2023-02-12T03:03:01;16.57;;;11.57;;
13592;SDS011;6867;50.998;4.250;2023-02-12T03:05:36;17.73;;;11.57;;
13592;SDS011;6867;50.998;4.250;2023-02-12T03:08:07;17.47;;;11.50;;
13592;SDS011;6867;50.998;4.250;2023-02-12T03:10:38;17.40;;;11.57;;
13592;SDS011;6867;50.998;4.250;2023-02-12T03:13:08;16.80;;;11.53;;
13592;SDS011;6867;50.998;4.250;2023-02-12T03:15:40;18.13;;;11.47;;
13592;SDS011;6867;50.998;4.250;2023-02-12T03:18:12;15.83;;;10.50;;
13592;SDS011;6867;50.998;4.250;2023-02-12T03:20:46;15.90;;;11.20;;
13592;SDS011;6867;50.998;4.250;2023-02-12T03:23:18;16.47;;;11.50;;
13592;SDS011;6867;50.998;4.250;2023-02-12T03:25:51;14.13;;;11.03;;
13592;SDS011;6867;50.998;4.250;2023-02-12T03:28:24;16.77;;;11.90;;
13592;SDS011;6867;50.998;4.250;2023-02-12T03:30:56;19.10;;;11.73;;
13592;SDS011;6867;50.998;4.250;2023-02-12T03:33:28;17.20;;;11.60;;
13592;SDS011;6867;50.998;4.250;2023-02-12T03:36:01;18.23;;;11.57;;
13592;SDS011;6867;50.998;4.250;2023-02-12T03:38:36;18.90;;;12.70;;
13592;SDS011;6867;50.998;4.250;2023-02-12T03:41:10;19.60;;;12.70;;
13592;SDS011;6867;50.998;4.250;2023-02-12T03:43:43;17.47;;;11.97;;
13592;SDS011;6867;50.998;4.250;2023-02-12T03:46:18;18.07;;;12.60;;
13592;SDS011;6867;50.998;4.250;2023-02-12T03:48:53;20.73;;;13.50;;
13592;SDS011;6867;50.998;4.250;2023-02-12T03:51:25;17.77;;;11.93;;
13592;SDS011;6867;50.998;4.250;2023-02-12T03:53:57;20.57;;;13.23;;
13592;SDS011;6867;50.998;4.250;2023-02-12T03:56:24;19.10;;;12.37;;
13592;SDS011;6867;50.998;4.250;2023-02-12T03:58:55;17.87;;;11.70;;
13592;SDS011;6867;50.998;4.250;2023-02-12T04:01:24;19.80;;;13.10;;
13592;SDS011;6867;50.998;4.250;2023-02-12T04:03:52;18.70;;;11.93;;
13592;SDS011;6867;50.998;4.250;2023-02-12T04:06:20;19.00;;;13.23;;
13592;SDS011;6867;50.998;4.250;2023-02-12T04:08:49;20.90;;;13.53;;
13592;SDS011;6867;50.998;4.250;2023-02-12T04:11:19;18.93;;;11.83;;
13592;SDS011;6867;50.998;4.250;2023-02-12T04:13:59;17.93;;;12.80;;
13592;SDS011;6867;50.998;4.250;2023-02-12T04:16:39;17.13;;;12.03;;
13592;SDS011;6867;50.998;4.250;2023-02-12T04:19:10;17.37;;;11.73;;
13592;SDS011;6867;50.998;4.250;2023-02-12T04:21:42;25.63;;;15.67;;
13592;SDS011;6867;50.998;4.250;2023-02-12T04:24:18;21.13;;;13.30;;
13592;SDS011;6867;50.998;4.250;2023-02-12T04:26:56;21.87;;;13.40;;
13592;SDS011;6867;50.998;4.250;2023-02-12T04:29:31;20.60;;;13.83;;
13592;SDS011;6867;50.998;4.250;2023-02-12T04:32:08;20.97;;;13.57;;
13592;SDS011;6867;50.998;4.250;2023-02-12T04:34:42;21.17;;;14.63;;
13592;SDS011;6867;50.998;4.250;2023-02-12T04:37:15;19.87;;;13.07;;
13592;SDS011;6867;50.998;4.250;2023-02-12T04:39:44;22.20;;;14.03;;
13592;SDS011;6867;50.998;4.250;2023-02-12T04:42:13;20.40;;;13.93;;
13592;SDS011;6867;50.998;4.250;2023-02-12T04:44:41;21.33;;;15.17;;
13592;SDS011;6867;50.998;4.250;2023-02-12T04:47:10;23.37;;;13.37;;
13592;SDS011;6867;50.998;4.250;2023-02-12T04:49:37;24.50;;;14.50;;
13592;SDS011;6867;50.998;4.250;2023-02-12T04:52:05;21.47;;;13.70;;
13592;SDS011;6867;50.998;4.250;2023-02-12T04:54:32;24.83;;;14.83;;
13592;SDS011;6867;50.998;4.250;2023-02-12T04:56:59;19.67;;;13.13;;
13592;SDS011;6867;50.998;4.250;2023-02-12T04:59:26;22.13;;;14.10;;
13592;SDS011;6867;50.998;4.250;2023-02-12T05:01:52;27.07;;;15.07;;
13592;SDS011;6867;50.998;4.250;2023-02-12T05:04:20;24.77;;;15.77;;
13592;SDS011;6867;50.998;4.250;2023-02-12T05:06:47;23.03;;;14.83;;
13592;SDS011;6867;50.998;4.250;2023-02-12T05:09:14;23.93;;;15.13;;
13592;SDS011;6867;50.998;4.250;2023-02-12T05:11:42;26.57;;;16.73;;
13592;SDS011;6867;50.998;4.250;2023-02-12T05:14:09;26.10;;;16.93;;
13592;SDS011;6867;50.998;4.250;2023-02-12T05:16:36;25.17;;;16.50;;
13592;SDS011;6867;50.998;4.250;2023-02-12T05:19:03;26.13;;;17.17;;
13592;SDS011;6867;50.998;4.250;2023-02-12T05:21:31;28.07;;;17.30;;
13592;SDS011;6867;50.998;4.250;2023-02-12T05:23:59;25.50;;;16.97;;
13592;SDS011;6867;50.998;4.250;2023-02-12T05:26:26;27.60;;;17.70;;
13592;SDS011;6867;50.998;4.250;2023-02-12T05:28:53;28.43;;;17.83;;
13592;SDS011;6867;50.998;4.250;2023-02-12T05:31:19;26.67;;;17.43;;
13592;SDS011;6867;50.998;4.250;2023-02-12T05:33:46;24.77;;;16.87;;
13592;SDS011;6867;50.998;4.250;2023-02-12T05:36:15;30.20;;;17.20;;
13592;SDS011;6867;50.998;4.250;2023-02-12T05:38:44;29.80;;;17.47;;
13592;SDS011;6867;50.998;4.250;2023-02-12T05:41:12;30.43;;;18.40;;
13592;SDS011;6867;50.998;4.250;2023-02-12T05:43:40;28.10;;;18.13;;
13592;SDS011;6867;50.998;4.250;2023-02-12T05:46:07;27.30;;;17.47;;
13592;SDS011;6867;50.998;4.250;2023-02-12T05:48:35;24.97;;;16.60;;
13592;SDS011;6867;50.998;4.250;2023-02-12T05:51:03;28.67;;;18.40;;
13592;SDS011;6867;50.998;4.250;2023-02-12T05:53:31;28.07;;;17.40;;
13592;SDS011;6867;50.998;4.250;2023-02-12T05:56:09;24.20;;;16.67;;
13592;SDS011;6867;50.998;4.250;2023-02-12T05:58:38;28.73;;;17.27;;
13592;SDS011;6867;50.998;4.250;2023-02-12T06:01:09;24.57;;;16.23;;
13592;SDS011;6867;50.998;4.250;2023-02-12T06:03:37;22.97;;;14.93;;
13592;SDS011;6867;50.998;4.250;2023-02-12T06:06:04;25.90;;;16.83;;
13592;SDS011;6867;50.998;4.250;2023-02-12T06:08:31;25.03;;;16.27;;
13592;SDS011;6867;50.998;4.250;2023-02-12T06:10:59;23.27;;;16.27;;
13592;SDS011;6867;50.998;4.250;2023-02-12T06:13:28;24.43;;;15.40;;
13592;SDS011;6867;50.998;4.250;2023-02-12T06:15:55;25.07;;;14.80;;
13592;SDS011;6867;50.998;4.250;2023-02-12T06:18:22;26.10;;;14.47;;
13592;SDS011;6867;50.998;4.250;2023-02-12T06:20:50;22.47;;;13.87;;
13592;SDS011;6867;50.998;4.250;2023-02-12T06:23:18;23.03;;;14.87;;
13592;SDS011;6867;50.998;4.250;2023-02-12T06:25:45;23.73;;;16.37;;
13592;SDS011;6867;50.998;4.250;2023-02-12T06:28:11;26.07;;;16.43;;
13592;SDS011;6867;50.998;4.250;2023-02-12T06:30:40;26.23;;;16.53;;
13592;SDS011;6867;50.998;4.250;2023-02-12T06:33:06;24.80;;;16.60;;
13592;SDS011;6867;50.998;4.250;2023-02-12T06:35:34;25.60;;;16.47;;
13592;SDS011;6867;50.998;4.250;2023-02-12T06:38:01;26.07;;;17.07;;
13592;SDS011;6867;50.998;4.250;2023-02-12T06:40:27;25.57;;;16.77;;
13592;SDS011;6867;50.998;4.250;2023-02-12T06:42:54;25.53;;;16.73;;
13592;SDS011;6867;50.998;4.250;2023-02-12T06:45:21;26.77;;;16.13;;
13592;SDS011;6867;50.998;4.250;2023-02-12T06:47:49;26.00;;;17.10;;
13592;SDS011;6867;50.998;4.250;2023-02-12T06:50:17;28.80;;;17.33;;
13592;SDS011;6867;50.998;4.250;2023-02-12T06:52:43;27.30;;;16.30;;
13592;SDS011;6867;50.998;4.250;2023-02-12T06:55:10;25.70;;;16.83;;
13592;SDS011;6867;50.998;4.250;2023-02-12T06:57:37;25.53;;;17.10;;
13592;SDS011;6867;50.998;4.250;2023-02-12T07:00:04;28.10;;;16.47;;
13592;SDS011;6867;50.998;4.250;2023-02-12T07:02:32;22.63;;;15.43;;
13592;SDS011;6867;50.998;4.250;2023-02-12T07:05:00;26.47;;;16.37;;
13592;SDS011;6867;50.998;4.250;2023-02-12T07:07:26;23.17;;;15.30;;
13592;SDS011;6867;50.998;4.250;2023-02-12T07:09:53;24.07;;;15.70;;
13592;SDS011;6867;50.998;4.250;2023-02-12T07:12:20;25.17;;;15.07;;
13592;SDS011;6867;50.998;4.250;2023-02-12T07:14:46;27.40;;;17.17;;
13592;SDS011;6867;50.998;4.250;2023-02-12T07:17:13;25.40;;;16.00;;
13592;SDS011;6867;50.998;4.250;2023-02-12T07:19:40;28.83;;;18.50;;
13592;SDS011;6867;50.998;4.250;2023-02-12T07:22:08;28.70;;;18.57;;
13592;SDS011;6867;50.998;4.250;2023-02-12T07:24:35;37.37;;;21.70;;
13592;SDS011;6867;50.998;4.250;2023-02-12T07:27:03;28.87;;;18.43;;
13592;SDS011;6867;50.998;4.250;2023-02-12T07:29:30;26.07;;;16.40;;
13592;SDS011;6867;50.998;4.250;2023-02-12T07:31:56;24.70;;;15.67;;
13592;SDS011;6867;50.998;4.250;2023-02-12T07:34:23;24.73;;;15.83;;
13592;SDS011;6867;50.998;4.250;2023-02-12T07:36:50;29.23;;;16.33;;
13592;SDS011;6867;50.998;4.250;2023-02-12T07:39:18;27.93;;;17.57;;
13592;SDS011;6867;50.998;4.250;2023-02-12T07:41:44;24.43;;;15.40;;
13592;SDS011;6867;50.998;4.250;2023-02-12T07:44:11;24.17;;;15.50;;
13592;SDS011;6867;50.998;4.250;2023-02-12T07:46:39;25.20;;;15.10;;
13592;SDS011;6867;50.998;4.250;2023-02-12T07:49:10;22.17;;;14.30;;
13592;SDS011;6867;50.998;4.250;2023-02-12T07:51:38;22.23;;;14.83;;
13592;SDS011;6867;50.998;4.250;2023-02-12T07:54:05;22.40;;;14.37;;
13592;SDS011;6867;50.998;4.250;2023-02-12T07:56:34;24.93;;;15.03;;
13592;SDS011;6867;50.998;4.250;2023-02-12T07:59:04;27.20;;;16.03;;
13592;SDS011;6867;50.998;4.250;2023-02-12T08:01:32;24.00;;;14.90;;
13592;SDS011;6867;50.998;4.250;2023-02-12T08:04:00;21.50;;;14.07;;
13592;SDS011;6867;50.998;4.250;2023-02-12T08:06:29;26.33;;;14.77;;
13592;SDS011;6867;50.998;4.250;2023-02-12T08:08:57;25.17;;;15.33;;
13592;SDS011;6867;50.998;4.250;2023-02-12T08:11:26;25.63;;;15.47;;
13592;SDS011;6867;50.998;4.250;2023-02-12T08:13:55;21.70;;;14.03;;
13592;SDS011;6867;50.998;4.250;2023-02-12T08:16:23;27.97;;;16.57;;
13592;SDS011;6867;50.998;4.250;2023-02-12T08:18:51;28.63;;;17.90;;
13592;SDS011;6867;50.998;4.250;2023-02-12T08:21:19;28.90;;;17.07;;
13592;SDS011;6867;50.998;4.250;2023-02-12T08:23:47;29.83;;;17.37;;
13592;SDS011;6867;50.998;4.250;2023-02-12T08:26:15;30.20;;;17.30;;
13592;SDS011;6867;50.998;4.250;2023-02-12T08:28:44;31.77;;;18.03;;
13592;SDS011;6867;50.998;4.250;2023-02-12T08:31:15;25.63;;;15.90;;
13592;SDS011;6867;50.998;4.250;2023-02-12T08:33:45;27.83;;;16.53;;
13592;SDS011;6867;50.998;4.250;2023-02-12T08:36:13;26.87;;;17.37;;
13592;SDS011;6867;50.998;4.250;2023-02-12T08:38:41;31.50;;;16.30;;
13592;SDS011;6867;50.998;4.250;2023-02-12T08:41:10;27.77;;;17.00;;
13592;SDS011;6867;50.998;4.250;2023-02-12T08:43:40;22.20;;;14.50;;
13592;SDS011;6867;50.998;4.250;2023-02-12T08:46:07;25.53;;;16.00;;
13592;SDS011;6867;50.998;4.250;2023-02-12T08:48:38;22.87;;;14.10;;
13592;SDS011;6867;50.998;4.250;2023-02-12T08:51:05;25.67;;;15.47;;
13592;SDS011;6867;50.998;4.250;2023-02-12T08:53:34;25.17;;;16.27;;
13592;SDS011;6867;50.998;4.250;2023-02-12T08:56:01;25.63;;;15.87;;
13592;SDS011;6867;50.998;4.250;2023-02-12T08:58:28;27.47;;;15.80;;
13592;SDS011;6867;50.998;4.250;2023-02-12T09:00:55;25.50;;;15.97;;
13592;SDS011;6867;50.998;4.250;2023-02-12T09:03:22;23.23;;;15.20;;
13592;SDS011;6867;50.998;4.250;2023-02-12T09:05:50;29.07;;;17.67;;
13592;SDS011;6867;50.998;4.250;2023-02-12T09:08:17;26.17;;;16.57;;
13592;SDS011;6867;50.998;4.250;2023-02-12T09:10:44;24.87;;;16.90;;
13592;SDS011;6867;50.998;4.250;2023-02-12T09:13:11;28.70;;;16.57;;
13592;SDS011;6867;50.998;4.250;2023-02-12T09:15:39;28.77;;;17.77;;
13592;SDS011;6867;50.998;4.250;2023-02-12T09:18:07;25.63;;;16.37;;
13592;SDS011;6867;50.998;4.250;2023-02-12T09:20:35;27.50;;;16.20;;
13592;SDS011;6867;50.998;4.250;2023-02-12T09:23:05;28.40;;;17.57;;
13592;SDS011;6867;50.998;4.250;2023-02-12T09:25:32;27.80;;;17.30;;
13592;SDS011;6867;50.998;4.250;2023-02-12T09:28:00;27.40;;;16.83;;
13592;SDS011;6867;50.998;4.250;2023-02-12T09:30:26;26.93;;;16.37;;
13592;SDS011;6867;50.998;4.250;2023-02-12T09:32:53;26.23;;;16.60;;
13592;SDS011;6867;50.998;4.250;2023-02-12T09:35:20;20.03;;;13.83;;
13592;SDS011;6867;50.998;4.250;2023-02-12T09:37:47;23.50;;;14.93;;
13592;SDS011;6867;50.998;4.250;2023-02-12T09:42:52;22.10;;;14.17;;
13592;SDS011;6867;50.998;4.250;2023-02-12T09:45:29;21.67;;;14.13;;
13592;SDS011;6867;50.998;4.250;2023-02-12T09:47:59;20.87;;;14.37;;
13592;SDS011;6867;50.998;4.250;2023-02-12T09:50:36;22.37;;;14.23;;
13592;SDS011;6867;50.998;4.250;2023-02-12T09:53:08;22.70;;;13.47;;
13592;SDS011;6867;50.998;4.250;2023-02-12T09:55:41;22.20;;;14.50;;
13592;SDS011;6867;50.998;4.250;2023-02-12T09:58:10;20.53;;;13.07;;
13592;SDS011;6867;50.998;4.250;2023-02-12T10:00:40;19.23;;;12.53;;
13592;SDS011;6867;50.998;4.250;2023-02-12T10:03:10;19.27;;;12.67;;
13592;SDS011;6867;50.998;4.250;2023-02-12T10:05:41;21.50;;;14.10;;
13592;SDS011;6867;50.998;4.250;2023-02-12T10:08:25;22.17;;;14.10;;
13592;SDS011;6867;50.998;4.250;2023-02-12T10:11:17;19.90;;;13.20;;
13592;SDS011;6867;50.998;4.250;2023-02-12T10:13:58;21.73;;;12.77;;
13592;SDS011;6867;50.998;4.250;2023-02-12T10:16:36;16.30;;;11.73;;
13592;SDS011;6867;50.998;4.250;2023-02-12T10:19:20;18.40;;;11.70;;
13592;SDS011;6867;50.998;4.250;2023-02-12T10:21:58;14.77;;;10.60;;
13592;SDS011;6867;50.998;4.250;2023-02-12T10:24:41;16.17;;;10.47;;
13592;SDS011;6867;50.998;4.250;2023-02-12T10:27:15;14.80;;;10.43;;
13592;SDS011;6867;50.998;4.250;2023-02-12T10:29:45;16.13;;;10.37;;
13592;SDS011;6867;50.998;4.250;2023-02-12T10:32:17;16.37;;;10.00;;
13592;SDS011;6867;50.998;4.250;2023-02-12T10:34:51;14.77;;;10.07;;
13592;SDS011;6867;50.998;4.250;2023-02-12T10:37:20;15.93;;;9.90;;
13592;SDS011;6867;50.998;4.250;2023-02-12T10:39:54;12.47;;;8.73;;
13592;SDS011;6867;50.998;4.250;2023-02-12T10:42:30;14.30;;;9.00;;
13592;SDS011;6867;50.998;4.250;2023-02-12T10:45:03;13.13;;;8.43;;
13592;SDS011;6867;50.998;4.250;2023-02-12T10:47:31;14.20;;;9.80;;
13592;SDS011;6867;50.998;4.250;2023-02-12T10:49:58;15.03;;;9.67;;
13592;SDS011;6867;50.998;4.250;2023-02-12T10:52:30;18.37;;;10.83;;
13592;SDS011;6867;50.998;4.250;2023-02-12T10:55:06;16.40;;;10.90;;
13592;SDS011;6867;50.998;4.250;2023-02-12T10:57:51;17.30;;;10.77;;
13592;SDS011;6867;50.998;4.250;2023-02-12T11:00:21;18.73;;;12.10;;
13592;SDS011;6867;50.998;4.250;2023-02-12T11:03:04;15.03;;;10.10;;
13592;SDS011;6867;50.998;4.250;2023-02-12T11:05:45;17.00;;;11.23;;
13592;SDS011;6867;50.998;4.250;2023-02-12T11:08:28;15.87;;;10.97;;
13592;SDS011;6867;50.998;4.250;2023-02-12T11:11:05;14.00;;;9.53;;
13592;SDS011;6867;50.998;4.250;2023-02-12T11:13:36;15.77;;;9.70;;
13592;SDS011;6867;50.998;4.250;2023-02-12T11:16:05;14.60;;;9.77;;
13592;SDS011;6867;50.998;4.250;2023-02-12T11:18:32;13.87;;;9.57;;
13592;SDS011;6867;50.998;4.250;2023-02-12T11:21:01;15.87;;;9.87;;
13592;SDS011;6867;50.998;4.250;2023-02-12T11:23:31;16.53;;;10.57;;
13592;SDS011;6867;50.998;4.250;2023-02-12T11:26:00;17.10;;;10.43;;
13592;SDS011;6867;50.998;4.250;2023-02-12T11:28:29;16.90;;;10.67;;
13592;SDS011;6867;50.998;4.250;2023-02-12T11:31:00;13.73;;;10.03;;
13592;SDS011;6867;50.998;4.250;2023-02-12T11:33:30;17.20;;;10.73;;
13592;SDS011;6867;50.998;4.250;2023-02-12T11:35:59;19.87;;;12.27;;
13592;SDS011;6867;50.998;4.250;2023-02-12T11:38:30;17.27;;;11.07;;
13592;SDS011;6867;50.998;4.250;2023-02-12T11:41:01;17.60;;;10.90;;
13592;SDS011;6867;50.998;4.250;2023-02-12T11:43:32;16.03;;;10.83;;
13592;SDS011;6867;50.998;4.250;2023-02-12T11:46:02;15.60;;;11.13;;
13592;SDS011;6867;50.998;4.250;2023-02-12T11:48:32;19.60;;;11.83;;
13592;SDS011;6867;50.998;4.250;2023-02-12T11:51:03;16.10;;;10.80;;
13592;SDS011;6867;50.998;4.250;2023-02-12T11:53:34;15.00;;;10.63;;
13592;SDS011;6867;50.998;4.250;2023-02-12T11:56:05;18.07;;;11.37;;
13592;SDS011;6867;50.998;4.250;2023-02-12T11:58:34;16.70;;;10.87;;
13592;SDS011;6867;50.998;4.250;2023-02-12T12:01:07;16.90;;;10.73;;
13592;SDS011;6867;50.998;4.250;2023-02-12T12:03:42;16.30;;;11.00;;
13592;SDS011;6867;50.998;4.250;2023-02-12T12:06:17;16.50;;;10.93;;
13592;SDS011;6867;50.998;4.250;2023-02-12T12:09:02;19.27;;;11.00;;
13592;SDS011;6867;50.998;4.250;2023-02-12T12:11:35;17.07;;;10.50;;
13592;SDS011;6867;50.998;4.250;2023-02-12T12:14:07;17.63;;;11.30;;
13592;SDS011;6867;50.998;4.250;2023-02-12T12:16:46;17.23;;;11.37;;
13592;SDS011;6867;50.998;4.250;2023-02-12T12:19:36;19.80;;;10.77;;
13592;SDS011;6867;50.998;4.250;2023-02-12T12:22:25;15.97;;;10.33;;
13592;SDS011;6867;50.998;4.250;2023-02-12T12:25:11;17.30;;;10.70;;
13592;SDS011;6867;50.998;4.250;2023-02-12T12:27:50;18.17;;;11.10;;
13592;SDS011;6867;50.998;4.250;2023-02-12T12:30:35;17.93;;;11.10;;
13592;SDS011;6867;50.998;4.250;2023-02-12T12:33:13;17.27;;;9.97;;
13592;SDS011;6867;50.998;4.250;2023-02-12T12:35:48;15.83;;;9.80;;
13592;SDS011;6867;50.998;4.250;2023-02-12T12:38:28;16.37;;;10.40;;
13592;SDS011;6867;50.998;4.250;2023-02-12T12:41:06;19.17;;;10.40;;
13592;SDS011;6867;50.998;4.250;2023-02-12T12:43:47;23.20;;;10.57;;
13592;SDS011;6867;50.998;4.250;2023-02-12T12:49:27;16.07;;;10.67;;
13592;SDS011;6867;50.998;4.250;2023-02-12T12:55:14;18.03;;;11.80;;
13592;SDS011;6867;50.998;4.250;2023-02-12T12:57:56;18.67;;;11.60;;
13592;SDS011;6867;50.998;4.250;2023-02-12T13:00:36;17.17;;;11.03;;
13592;SDS011;6867;50.998;4.250;2023-02-12T13:03:20;17.27;;;10.23;;
13592;SDS011;6867;50.998;4.250;2023-02-12T13:09:10;19.47;;;11.87;;
13592;SDS011;6867;50.998;4.250;2023-02-12T13:12:05;18.23;;;10.50;;
13592;SDS011;6867;50.998;4.250;2023-02-12T13:14:48;17.03;;;10.63;;
13592;SDS011;6867;50.998;4.250;2023-02-12T13:17:21;19.63;;;11.73;;
13592;SDS011;6867;50.998;4.250;2023-02-12T13:19:54;17.17;;;11.13;;
13592;SDS011;6867;50.998;4.250;2023-02-12T13:22:32;17.00;;;11.37;;
13592;SDS011;6867;50.998;4.250;2023-02-12T13:25:13;19.17;;;11.63;;
13592;SDS011;6867;50.998;4.250;2023-02-12T13:27:46;18.33;;;11.00;;
13592;SDS011;6867;50.998;4.250;2023-02-12T13:30:17;17.70;;;11.70;;
13592;SDS011;6867;50.998;4.250;2023-02-12T13:32:48;19.77;;;11.47;;
13592;SDS011;6867;50.998;4.250;2023-02-12T13:35:21;21.43;;;12.90;;
13592;SDS011;6867;50.998;4.250;2023-02-12T13:37:52;15.97;;;11.00;;
13592;SDS011;6867;50.998;4.250;2023-02-12T13:40:20;19.00;;;12.60;;
13592;SDS011;6867;50.998;4.250;2023-02-12T13:42:49;19.23;;;12.00;;
13592;SDS011;6867;50.998;4.250;2023-02-12T13:45:28;18.83;;;11.97;;
13592;SDS011;6867;50.998;4.250;2023-02-12T13:50:51;18.93;;;12.10;;
13592;SDS011;6867;50.998;4.250;2023-02-12T13:53:28;20.10;;;12.03;;
13592;SDS011;6867;50.998;4.250;2023-02-12T13:56:04;17.53;;;11.90;;
13592;SDS011;6867;50.998;4.250;2023-02-12T13:58:49;19.53;;;12.03;;
13592;SDS011;6867;50.998;4.250;2023-02-12T14:04:14;19.27;;;11.60;;
13592;SDS011;6867;50.998;4.250;2023-02-12T14:06:53;19.63;;;12.60;;
13592;SDS011;6867;50.998;4.250;2023-02-12T14:09:26;19.23;;;12.27;;
13592;SDS011;6867;50.998;4.250;2023-02-12T14:11:56;21.20;;;12.37;;
13592;SDS011;6867;50.998;4.250;2023-02-12T14:14:25;19.23;;;12.27;;
13592;SDS011;6867;50.998;4.250;2023-02-12T14:16:55;21.37;;;12.70;;
13592;SDS011;6867;50.998;4.250;2023-02-12T14:25:35;19.70;;;12.87;;
13592;SDS011;6867;50.998;4.250;2023-02-12T14:28:06;17.70;;;11.40;;
13592;SDS011;6867;50.998;4.250;2023-02-12T14:30:44;19.27;;;11.33;;
13592;SDS011;6867;50.998;4.250;2023-02-12T14:33:22;19.37;;;11.97;;
13592;SDS011;6867;50.998;4.250;2023-02-12T14:39:04;21.33;;;12.60;;
13592;SDS011;6867;50.998;4.250;2023-02-12T14:41:55;18.03;;;11.43;;
13592;SDS011;6867;50.998;4.250;2023-02-12T14:45:01;20.63;;;12.10;;
13592;SDS011;6867;50.998;4.250;2023-02-12T14:50:18;20.63;;;11.70;;
13592;SDS011;6867;50.998;4.250;2023-02-12T14:52:50;19.80;;;12.27;;
13592;SDS011;6867;50.998;4.250;2023-02-12T14:55:21;23.23;;;12.47;;
13592;SDS011;6867;50.998;4.250;2023-02-12T14:57:55;21.10;;;12.57;;
13592;SDS011;6867;50.998;4.250;2023-02-12T15:00:26;20.83;;;11.97;;
13592;SDS011;6867;50.998;4.250;2023-02-12T15:02:57;20.37;;;12.57;;
13592;SDS011;6867;50.998;4.250;2023-02-12T15:05:28;18.57;;;11.97;;
13592;SDS011;6867;50.998;4.250;2023-02-12T15:07:58;21.50;;;12.90;;
13592;SDS011;6867;50.998;4.250;2023-02-12T15:10:28;21.80;;;12.17;;
13592;SDS011;6867;50.998;4.250;2023-02-12T15:13:04;22.40;;;13.00;;
13592;SDS011;6867;50.998;4.250;2023-02-12T15:15:42;19.47;;;11.97;;
13592;SDS011;6867;50.998;4.250;2023-02-12T15:18:17;20.17;;;12.70;;
13592;SDS011;6867;50.998;4.250;2023-02-12T15:20:53;23.37;;;13.43;;
13592;SDS011;6867;50.998;4.250;2023-02-12T15:23:34;22.03;;;13.17;;
13592;SDS011;6867;50.998;4.250;2023-02-12T15:26:04;20.53;;;12.20;;
13592;SDS011;6867;50.998;4.250;2023-02-12T15:28:38;23.30;;;12.77;;
13592;SDS011;6867;50.998;4.250;2023-02-12T15:31:06;26.70;;;13.77;;
13592;SDS011;6867;50.998;4.250;2023-02-12T15:33:36;20.43;;;12.57;;
13592;SDS011;6867;50.998;4.250;2023-02-12T15:36:07;22.83;;;12.97;;